Time;durP1;ratioP1;P1;durP2;ratioP2;P2;SDS_P1;SDS_P2;PMS_P1;PMS_P2;Temp;Humidity;BMP_temperature;BMP_pressure;BME280_temperature;BME280_humidity;BME280_pressure;Samples;Min_cycle;Max_cycle;Signal;HPM_P1;HPM_P2
2019/09/27 00:02:19;;;;;;;7.3;2.1;;;;;;;;;;;;;
2019/09/27 00:04:44;;;;;;;7.9;2.4;;;;;;;;;;;;;
2019/09/27 00:07:09;;;;;;;9.2;2.5;;;;;;;;;;;;;
2019/09/27 00:09:34;;;;;;;8.5;2.8;;;;;;;;;;;;;
2019/09/27 00:12:00;;;;;;;8.6;2.4;;;;;;;;;;;;;
2019/09/27 00:14:25;;;;;;;8.1;2.2;;;;;;;;;;;;;
2019/09/27 00:16:50;;;;;;;6.7;2.2;;;;;;;;;;;;;
2019/09/27 00:19:15;;;;;;;7.1;2.4;;;;;;;;;;;;;
2019/09/27 00:21:40;;;;;;;8.2;2.4;;;;;;;;;;;;;
2019/09/27 00:24:05;;;;;;;6.7;2;;;;;;;;;;;;;
2019/09/27 00:26:30;;;;;;;9;2.4;;;;;;;;;;;;;
2019/09/27 00:28:55;;;;;;;8.3;2.3;;;;;;;;;;;;;
2019/09/27 00:31:20;;;;;;;9.3;2.4;;;;;;;;;;;;;
2019/09/27 00:33:46;;;;;;;8.9;2.3;;;;;;;;;;;;;
2019/09/27 00:36:11;;;;;;;8.1;2.4;;;;;;;;;;;;;
2019/09/27 00:38:36;;;;;;;9.6;2.3;;;;;;;;;;;;;
2019/09/27 00:41:01;;;;;;;6.6;2.1;;;;;;;;;;;;;
2019/09/27 00:43:26;;;;;;;6.7;2.5;;;;;;;;;;;;;
2019/09/27 00:45:51;;;;;;;6.6;2.3;;;;;;;;;;;;;
2019/09/27 00:48:16;;;;;;;6.7;2.4;;;;;;;;;;;;;
2019/09/27 00:50:41;;;;;;;4.9;2.2;;;;;;;;;;;;;
2019/09/27 00:53:06;;;;;;;8.2;2.1;;;;;;;;;;;;;
2019/09/27 00:55:31;;;;;;;7.9;2;;;;;;;;;;;;;
2019/09/27 00:57:56;;;;;;;6.5;2.2;;;;;;;;;;;;;
2019/09/27 01:00:21;;;;;;;8.7;2.1;;;;;;;;;;;;;
2019/09/27 01:02:47;;;;;;;9.2;2.2;;;;;;;;;;;;;
2019/09/27 01:05:12;;;;;;;6.1;2.1;;;;;;;;;;;;;
2019/09/27 01:07:37;;;;;;;7.4;1.9;;;;;;;;;;;;;
2019/09/27 01:10:02;;;;;;;7.9;2.3;;;;;;;;;;;;;
2019/09/27 01:12:27;;;;;;;5.7;2.1;;;;;;;;;;;;;
2019/09/27 01:14:53;;;;;;;7.8;2.2;;;;;;;;;;;;;
2019/09/27 01:17:18;;;;;;;8.6;2.1;;;;;;;;;;;;;
2019/09/27 01:19:43;;;;;;;10.3;2;;;;;;;;;;;;;
2019/09/27 01:22:08;;;;;;;7.6;2.4;;;;;;;;;;;;;
2019/09/27 01:24:33;;;;;;;9.5;2.2;;;;;;;;;;;;;
2019/09/27 01:26:58;;;;;;;8;2.2;;;;;;;;;;;;;
2019/09/27 01:29:23;;;;;;;9.1;2.5;;;;;;;;;;;;;
2019/09/27 01:31:48;;;;;;;6.7;2.2;;;;;;;;;;;;;
2019/09/27 01:34:14;;;;;;;7.9;2.2;;;;;;;;;;;;;
2019/09/27 01:36:39;;;;;;;8.8;2.4;;;;;;;;;;;;;
2019/09/27 01:39:04;;;;;;;8.6;2.5;;;;;;;;;;;;;
2019/09/27 01:41:29;;;;;;;8.2;2.4;;;;;;;;;;;;;
2019/09/27 01:43:54;;;;;;;7.5;2.4;;;;;;;;;;;;;
2019/09/27 01:46:19;;;;;;;7.2;2;;;;;;;;;;;;;
2019/09/27 01:48:44;;;;;;;7.1;2.1;;;;;;;;;;;;;
2019/09/27 01:51:09;;;;;;;6.5;1.9;;;;;;;;;;;;;
2019/09/27 01:53:34;;;;;;;6.4;1.9;;;;;;;;;;;;;
2019/09/27 01:56:00;;;;;;;5.1;1.7;;;;;;;;;;;;;
2019/09/27 01:58:25;;;;;;;7.7;2.1;;;;;;;;;;;;;
2019/09/27 02:00:50;;;;;;;7;1.9;;;;;;;;;;;;;
2019/09/27 02:03:15;;;;;;;7;2.3;;;;;;;;;;;;;
2019/09/27 02:05:40;;;;;;;10.1;2.2;;;;;;;;;;;;;
2019/09/27 02:08:05;;;;;;;7.4;2.3;;;;;;;;;;;;;
2019/09/27 02:10:30;;;;;;;7.6;1.8;;;;;;;;;;;;;
2019/09/27 02:12:55;;;;;;;5.8;2;;;;;;;;;;;;;
2019/09/27 02:15:20;;;;;;;9.4;2.3;;;;;;;;;;;;;
2019/09/27 02:17:45;;;;;;;7.9;2.1;;;;;;;;;;;;;
2019/09/27 02:20:10;;;;;;;5.8;2.1;;;;;;;;;;;;;
2019/09/27 02:22:36;;;;;;;7.3;2.6;;;;;;;;;;;;;
2019/09/27 02:25:01;;;;;;;10.5;2.3;;;;;;;;;;;;;
2019/09/27 02:27:26;;;;;;;7.5;2;;;;;;;;;;;;;
2019/09/27 02:29:51;;;;;;;7;2.2;;;;;;;;;;;;;
2019/09/27 02:32:16;;;;;;;8.4;2.2;;;;;;;;;;;;;
2019/09/27 02:34:41;;;;;;;8.3;1.9;;;;;;;;;;;;;
2019/09/27 02:37:06;;;;;;;8.6;2.2;;;;;;;;;;;;;
2019/09/27 02:39:31;;;;;;;7.9;2;;;;;;;;;;;;;
2019/09/27 02:41:56;;;;;;;7.2;2.2;;;;;;;;;;;;;
2019/09/27 02:44:21;;;;;;;6.8;2.1;;;;;;;;;;;;;
2019/09/27 02:46:47;;;;;;;6.7;2.3;;;;;;;;;;;;;
2019/09/27 02:49:12;;;;;;;5.7;1.9;;;;;;;;;;;;;
2019/09/27 02:51:37;;;;;;;9.5;2.1;;;;;;;;;;;;;
2019/09/27 02:54:02;;;;;;;8.5;2.2;;;;;;;;;;;;;
2019/09/27 02:56:27;;;;;;;8.2;2.4;;;;;;;;;;;;;
2019/09/27 02:58:52;;;;;;;5.7;1.9;;;;;;;;;;;;;
2019/09/27 03:01:17;;;;;;;6.4;2.1;;;;;;;;;;;;;
2019/09/27 03:03:42;;;;;;;5.8;2;;;;;;;;;;;;;
2019/09/27 03:06:07;;;;;;;7.6;2.6;;;;;;;;;;;;;
2019/09/27 03:08:32;;;;;;;7.2;2.1;;;;;;;;;;;;;
2019/09/27 03:10:57;;;;;;;9.1;2.1;;;;;;;;;;;;;
2019/09/27 03:13:23;;;;;;;8.2;2.2;;;;;;;;;;;;;
2019/09/27 03:15:48;;;;;;;6.3;1.9;;;;;;;;;;;;;
2019/09/27 03:18:13;;;;;;;7.5;1.9;;;;;;;;;;;;;
2019/09/27 03:20:38;;;;;;;9;2.2;;;;;;;;;;;;;
2019/09/27 03:23:03;;;;;;;6;2;;;;;;;;;;;;;
2019/09/27 03:25:28;;;;;;;9.7;2.2;;;;;;;;;;;;;
2019/09/27 03:27:53;;;;;;;8.1;2;;;;;;;;;;;;;
2019/09/27 03:30:18;;;;;;;8.2;2.2;;;;;;;;;;;;;
2019/09/27 03:32:43;;;;;;;6.4;1.9;;;;;;;;;;;;;
2019/09/27 03:35:09;;;;;;;6.6;1.9;;;;;;;;;;;;;
2019/09/27 03:37:34;;;;;;;7.7;2.2;;;;;;;;;;;;;
2019/09/27 03:39:59;;;;;;;6.1;1.9;;;;;;;;;;;;;
2019/09/27 03:42:24;;;;;;;7.9;2;;;;;;;;;;;;;
2019/09/27 03:44:49;;;;;;;4.7;2;;;;;;;;;;;;;
2019/09/27 03:47:14;;;;;;;6.6;2.1;;;;;;;;;;;;;
2019/09/27 03:49:39;;;;;;;9.5;2.4;;;;;;;;;;;;;
2019/09/27 03:52:04;;;;;;;8.2;2;;;;;;;;;;;;;
2019/09/27 03:54:30;;;;;;;5.5;2.1;;;;;;;;;;;;;
2019/09/27 03:56:55;;;;;;;6.5;2.3;;;;;;;;;;;;;
2019/09/27 03:59:20;;;;;;;7;2.1;;;;;;;;;;;;;
2019/09/27 04:02:28;;;;;;;7.7;2.5;;;;;;;18.52;73.58203;999.1526;;;;
2019/09/27 04:04:53;;;;;;;8.8;2.6;;;;;;;18.56;73.38965;999.1828;;;;
2019/09/27 04:07:18;;;;;;;5.5;1.6;;;;;;;18.47;73.5498;999.1262;;;;
2019/09/27 04:09:43;;;;;;;6.5;2.2;;;;;;;18.49;73.48145;999.1595;;;;
2019/09/27 04:12:08;;;;;;;9.5;2.3;;;;;;;18.44;73.84668;999.1827;;;;
2019/09/27 04:14:33;;;;;;;6.3;1.9;;;;;;;18.47;73.63086;999.1526;;;;
2019/09/27 04:16:58;;;;;;;6.8;2.1;;;;;;;18.41;73.87695;999.1624;;;;
2019/09/27 04:19:23;;;;;;;7;2;;;;;;;18.38;73.93066;999.1523;;;;
2019/09/27 04:21:48;;;;;;;5.7;2.4;;;;;;;18.35;73.98438;999.0757;;;;
2019/09/27 04:24:13;;;;;;;8;1.9;;;;;;;18.38;74.04688;999.0706;;;;
2019/09/27 04:26:39;;;;;;;10.4;2.6;;;;;;;18.34;73.86523;999.0961;;;;
2019/09/27 04:29:04;;;;;;;7.8;2.5;;;;;;;18.32;74.0498;999.1273;;;;
2019/09/27 04:31:29;;;;;;;6.9;2;;;;;;;18.3;74.06836;999.103;;;;
2019/09/27 04:33:54;;;;;;;5.1;2.2;;;;;;;18.28;74.33398;999.0787;;;;
2019/09/27 04:36:19;;;;;;;8.9;2.1;;;;;;;18.3;74.16211;999.0391;;;;
2019/09/27 04:38:44;;;;;;;6.9;2.1;;;;;;;18.36;73.86914;999.069;;;;
2019/09/27 04:41:09;;;;;;;9.4;2.1;;;;;;;18.25;74.39746;999.065;;;;
2019/09/27 04:43:34;;;;;;;7.6;2.2;;;;;;;18.27;74.2959;999.0634;;;;
2019/09/27 04:45:59;;;;;;;10.8;2.4;;;;;;;18.25;74.23438;998.993;;;;
2019/09/27 04:48:36;;;;;;;7.5;2.2;;;;;;;18.24;74.30469;998.9998;;;;
2019/09/27 04:50:51;;;;;;;6.5;2.2;;;;;;;18.21;74.41309;999.029;;;;
2019/09/27 04:53:15;;;;;;;6.8;2;;;;;;;18.24;74.25781;998.9364;;;;
2019/09/27 04:55:40;;;;;;;6.5;2.1;;;;;;;18.18;74.60645;998.8915;;;;
2019/09/27 04:58:05;;;;;;;7.4;2.1;;;;;;;18.13;74.56445;998.8691;;;;
2019/09/27 05:00:30;;;;;;;7.7;1.9;;;;;;;18.17;74.33887;998.8493;;;;
2019/09/27 05:02:55;;;;;;;9.3;2.3;;;;;;;18.18;74.29395;998.8209;;;;
2019/09/27 05:05:20;;;;;;;6.6;2.1;;;;;;;18.14;74.07813;998.8207;;;;
2019/09/27 05:07:45;;;;;;;8.6;2.1;;;;;;;18.08;74.25391;998.7709;;;;
2019/09/27 05:10:10;;;;;;;7.2;1.9;;;;;;;18.12;73.8291;998.7028;;;;
2019/09/27 05:12:36;;;;;;;11.1;4.6;;;;;;;18.09;73.82422;998.6494;;;;
2019/09/27 05:15:01;;;;;;;8.4;2.2;;;;;;;18.06;73.96973;998.7148;;;;
2019/09/27 05:17:26;;;;;;;5.7;2.1;;;;;;;18.03;73.86133;998.6883;;;;
2019/09/27 05:19:51;;;;;;;4.8;1.8;;;;;;;18.1;73.40625;998.7151;;;;
2019/09/27 05:22:16;;;;;;;7.5;2.4;;;;;;;18.06;73.62207;998.6499;;;;
2019/09/27 05:24:41;;;;;;;7;2.2;;;;;;;18.12;73.08301;998.7131;;;;
2019/09/27 05:27:06;;;;;;;7.3;2.2;;;;;;;18.1;72.76465;998.6945;;;;
2019/09/27 05:29:31;;;;;;;11;2.4;;;;;;;18.11;72.74414;998.7547;;;;
2019/09/27 05:31:57;;;;;;;7.4;2.1;;;;;;;18.06;72.92285;998.7406;;;;
2019/09/27 05:34:22;;;;;;;8.2;2.3;;;;;;;18.09;72.6709;998.6853;;;;
2019/09/27 05:36:47;;;;;;;8.4;2.4;;;;;;;18.13;72.21094;998.7023;;;;
2019/09/27 05:39:12;;;;;;;6.6;1.9;;;;;;;18.11;72.32422;998.6256;;;;
2019/09/27 05:41:37;;;;;;;7.5;1.9;;;;;;;18.12;72.08105;998.5847;;;;
2019/09/27 05:44:02;;;;;;;5.9;2;;;;;;;18.18;71.9502;998.5594;;;;
2019/09/27 05:46:27;;;;;;;8.6;2;;;;;;;18.23;71.68066;998.5818;;;;
2019/09/27 05:48:52;;;;;;;7.2;2;;;;;;;18.22;71.94727;998.6479;;;;
2019/09/27 05:51:18;;;;;;;7.8;2;;;;;;;18.2;72.28125;998.6636;;;;
2019/09/27 05:53:43;;;;;;;8.4;2.3;;;;;;;18.17;72.61426;998.633;;;;
2019/09/27 05:56:08;;;;;;;7.6;2.1;;;;;;;18.24;72.3457;998.627;;;;
2019/09/27 05:58:33;;;;;;;6.8;2.2;;;;;;;18.22;72.70508;998.6268;;;;
2019/09/27 06:00:58;;;;;;;9.1;2.4;;;;;;;18.27;72.47949;998.6699;;;;
2019/09/27 06:03:23;;;;;;;9.2;2.5;;;;;;;18.36;71.5498;998.6545;;;;
2019/09/27 06:05:48;;;;;;;6.9;2.3;;;;;;;18.38;71.26172;998.6909;;;;
2019/09/27 06:08:13;;;;;;;7.9;2.4;;;;;;;18.44;71.00391;998.6769;;;;
2019/09/27 06:10:39;;;;;;;7.6;2.2;;;;;;;18.43;70.99023;998.7247;;;;
2019/09/27 06:13:04;;;;;;;6.2;2.1;;;;;;;18.49;70.49707;998.7142;;;;
2019/09/27 06:15:29;;;;;;;7.8;2.1;;;;;;;18.52;70.09473;998.8111;;;;
2019/09/27 06:17:54;;;;;;;10.3;2.7;;;;;;;18.59;69.80273;998.9039;;;;
2019/09/27 06:20:19;;;;;;;7.2;2.1;;;;;;;18.69;69.33984;998.8047;;;;
2019/09/27 06:22:44;;;;;;;9.3;2.2;;;;;;;18.73;69.24316;998.8;;;;
2019/09/27 06:25:10;;;;;;;6.8;2.2;;;;;;;18.84;68.20898;998.8431;;;;
2019/09/27 06:27:35;;;;;;;7.7;2.1;;;;;;;18.84;68.23242;998.8763;;;;
2019/09/27 06:30:00;;;;;;;11.5;2.6;;;;;;;18.77;68.5957;998.9122;;;;
2019/09/27 06:32:26;;;;;;;8.5;2.5;;;;;;;18.85;68.1875;998.9291;;;;
2019/09/27 06:34:51;;;;;;;9;2.7;;;;;;;18.89;68.07617;998.9108;;;;
2019/09/27 06:37:16;;;;;;;6.5;2.3;;;;;;;18.91;68.04395;998.8933;;;;
2019/09/27 06:39:41;;;;;;;10.8;2.7;;;;;;;18.84;68.26758;998.8746;;;;
2019/09/27 06:42:06;;;;;;;7.5;2.3;;;;;;;18.92;68.36133;998.8253;;;;
2019/09/27 06:44:31;;;;;;;6.2;2.1;;;;;;;18.97;67.96191;998.7891;;;;
2019/09/27 06:46:56;;;;;;;7.7;2.1;;;;;;;18.96;68.19336;998.7219;;;;
2019/09/27 06:49:21;;;;;;;6.3;2;;;;;;;19.01;67.97754;998.7637;;;;
2019/09/27 06:51:46;;;;;;;7.9;2.3;;;;;;;19;67.87109;998.7156;;;;
2019/09/27 06:54:11;;;;;;;7.6;2.1;;;;;;;18.96;67.56152;998.6778;;;;
2019/09/27 06:56:37;;;;;;;6.9;2.5;;;;;;;19;67.37012;998.818;;;;
2019/09/27 06:59:02;;;;;;;7.3;2;;;;;;;19.06;67.36719;998.8996;;;;
2019/09/27 07:01:27;;;;;;;7.5;2.5;;;;;;;18.97;67.01465;998.9079;;;;
2019/09/27 07:03:52;;;;;;;8.5;2.4;;;;;;;18.89;67.05078;998.9354;;;;
2019/09/27 07:06:17;;;;;;;9.9;2.4;;;;;;;18.94;66.9873;998.921;;;;
2019/09/27 07:08:42;;;;;;;9.1;2.7;;;;;;;18.97;67.3418;998.9285;;;;
2019/09/27 07:11:07;;;;;;;11.9;2.6;;;;;;;18.95;67.33887;998.992;;;;
2019/09/27 07:13:32;;;;;;;8.4;2.2;;;;;;;18.84;69.94727;998.9124;;;;
2019/09/27 07:15:57;;;;;;;8;2.2;;;;;;;18.74;71.0752;998.9533;;;;
2019/09/27 07:18:22;;;;;;;10.6;2.5;;;;;;;18.59;71.82031;998.9934;;;;
2019/09/27 07:20:47;;;;;;;9.3;2.7;;;;;;;18.64;71.50195;999.0119;;;;
2019/09/27 07:23:13;;;;;;;7.4;2.2;;;;;;;18.6;71.21484;999.0976;;;;
2019/09/27 07:25:38;;;;;;;6.6;2;;;;;;;18.77;70.9873;999.1195;;;;
2019/09/27 07:28:03;;;;;;;11.5;2.6;;;;;;;18.58;71.44531;999.1767;;;;
2019/09/27 07:30:28;;;;;;;6.7;2.3;;;;;;;18.61;71.49609;999.1805;;;;
2019/09/27 07:32:53;;;;;;;6.9;2.4;;;;;;;18.35;73.69141;999.1664;;;;
2019/09/27 07:35:19;;;;;;;8.4;2.6;;;;;;;18.18;74.59668;999.2216;;;;
2019/09/27 07:37:43;;;;;;;10.8;4;;;;;;;18.18;75.23535;999.1902;;;;
2019/09/27 07:40:08;;;;;;;8.8;2.6;;;;;;;18.22;74.38281;999.2079;;;;
2019/09/27 07:42:33;;;;;;;11;2.8;;;;;;;18.24;74.40918;999.384;;;;
2019/09/27 07:44:58;;;;;;;8.4;2.5;;;;;;;18.24;74.9668;999.3959;;;;
2019/09/27 07:47:24;;;;;;;10.1;2.8;;;;;;;18.3;74.91895;999.5043;;;;
2019/09/27 07:49:49;;;;;;;10.1;2.4;;;;;;;18.11;75.84082;999.5667;;;;
2019/09/27 07:52:14;;;;;;;8;2.7;;;;;;;17.99;76.98633;999.5779;;;;
2019/09/27 07:54:39;;;;;;;12.1;3;;;;;;;17.78;79.86035;999.5084;;;;
2019/09/27 07:57:04;;;;;;;13.2;3.1;;;;;;;17.62;81.38867;999.4542;;;;
2019/09/27 07:59:29;;;;;;;9.9;2.5;;;;;;;17.58;82.40527;999.4991;;;;
2019/09/27 08:01:55;;;;;;;8.9;3.1;;;;;;;17.34;83.62891;999.5582;;;;
2019/09/27 08:04:19;;;;;;;8.7;2.5;;;;;;;17.13;84.07617;999.5276;;;;
2019/09/27 08:06:44;;;;;;;12.1;3.1;;;;;;;17.19;84.66992;999.5739;;;;
2019/09/27 08:09:10;;;;;;;14.4;3.3;;;;;;;16.95;86.25098;999.514;;;;
2019/09/27 08:11:35;;;;;;;12.2;3.2;;;;;;;16.86;87.47461;999.4874;;;;
2019/09/27 08:14:00;;;;;;;10.4;3.2;;;;;;;16.82;87.43262;999.5311;;;;
2019/09/27 08:16:25;;;;;;;12;3.8;;;;;;;16.67;88.65527;999.5047;;;;
2019/09/27 08:18:50;;;;;;;16.9;3.3;;;;;;;16.71;89.10547;999.4973;;;;
2019/09/27 08:21:16;;;;;;;12.1;3;;;;;;;16.63;89.19434;999.5016;;;;
2019/09/27 08:23:41;;;;;;;11.3;3.3;;;;;;;16.7;89.27637;999.6161;;;;
2019/09/27 08:26:06;;;;;;;11.5;3.4;;;;;;;16.69;89.65723;999.6369;;;;
2019/09/27 08:28:31;;;;;;;12.3;3.3;;;;;;;16.76;89.75391;999.6531;;;;
2019/09/27 08:30:57;;;;;;;9.6;2.9;;;;;;;16.72;90.09277;999.6756;;;;
2019/09/27 08:33:22;;;;;;;13.6;3.7;;;;;;;16.7;90.54199;999.6752;;;;
2019/09/27 08:35:47;;;;;;;10.6;3.5;;;;;;;16.74;90.76074;999.6693;;;;
2019/09/27 08:38:12;;;;;;;11.5;3.4;;;;;;;16.96;89.84082;999.705;;;;
2019/09/27 08:40:37;;;;;;;10;3.2;;;;;;;16.95;90.1543;999.6764;;;;
2019/09/27 08:43:02;;;;;;;8.9;3.4;;;;;;;17.03;90.09961;999.6953;;;;
2019/09/27 08:45:28;;;;;;;10.7;3.4;;;;;;;17.23;89.43262;999.7161;;;;
2019/09/27 08:47:53;;;;;;;11.9;3.6;;;;;;;17.27;89.8584;999.7227;;;;
2019/09/27 08:50:18;;;;;;;10.3;3.2;;;;;;;17.3;88.53906;999.7136;;;;
2019/09/27 08:52:43;;;;;;;9.8;3.2;;;;;;;17.18;89.50293;999.7134;;;;
2019/09/27 08:55:09;;;;;;;13.3;3.3;;;;;;;17.26;89.60156;999.6379;;;;
2019/09/27 08:57:34;;;;;;;13.7;3.7;;;;;;;17.23;90.22363;999.5981;;;;
2019/09/27 08:59:59;;;;;;;10.3;3.6;;;;;;;17.38;90.21777;999.6387;;;;
2019/09/27 09:02:24;;;;;;;11;3.3;;;;;;;17.46;89.21094;999.6517;;;;
2019/09/27 09:04:49;;;;;;;10.4;3.3;;;;;;;17.27;89.69629;999.6675;;;;
2019/09/27 09:07:14;;;;;;;9.4;3.4;;;;;;;17.17;90.91992;999.6596;;;;
2019/09/27 09:09:40;;;;;;;8.6;3.1;;;;;;;17.32;91.11426;999.649;;;;
2019/09/27 09:12:05;;;;;;;9.9;3.8;;;;;;;17.4;90.55859;999.6627;;;;
2019/09/27 09:14:30;;;;;;;7.4;3.8;;;;;;;17.41;90.07031;999.6736;;;;
2019/09/27 09:16:56;;;;;;;13;4.1;;;;;;;17.13;91.78223;999.6284;;;;
2019/09/27 09:19:21;;;;;;;13.3;3.7;;;;;;;17.38;90.20605;999.5597;;;;
2019/09/27 09:21:46;;;;;;;12.7;4.2;;;;;;;17.17;91.05859;999.5422;;;;
2019/09/27 09:24:11;;;;;;;11.1;3.6;;;;;;;17.22;91.62598;999.5796;;;;
2019/09/27 09:26:36;;;;;;;11.9;3.7;;;;;;;17.17;91.42871;999.628;;;;
2019/09/27 09:29:01;;;;;;;14;4.1;;;;;;;17.08;92.33984;999.62;;;;
2019/09/27 09:31:26;;;;;;;12.7;3.5;;;;;;;17.2;91.99414;999.6237;;;;
2019/09/27 09:33:51;;;;;;;8;3.6;;;;;;;17.2;91.75;999.5734;;;;
2019/09/27 09:36:17;;;;;;;9.8;3.4;;;;;;;17.13;91.5957;999.5406;;;;
2019/09/27 09:38:42;;;;;;;13.9;4;;;;;;;17.06;91.94336;999.4303;;;;
2019/09/27 09:41:07;;;;;;;12.6;4;;;;;;;17.16;91.96191;999.4352;;;;
2019/09/27 09:43:32;;;;;;;14.6;4.1;;;;;;;17.57;91.00195;999.4369;;;;
2019/09/27 09:45:57;;;;;;;13.9;4.3;;;;;;;17.72;90.52148;999.4445;;;;
2019/09/27 09:48:22;;;;;;;12.5;3.5;;;;;;;17.44;91.2666;999.4872;;;;
2019/09/27 09:50:47;;;;;;;13.9;3.7;;;;;;;17.51;90.47656;999.528;;;;
2019/09/27 09:53:12;;;;;;;10.5;3.9;;;;;;;17.32;91.23047;999.5355;;;;
2019/09/27 09:55:38;;;;;;;12.4;4.1;;;;;;;17.41;90.50293;999.5927;;;;
2019/09/27 09:58:03;;;;;;;13.6;3.9;;;;;;;17.31;91.06348;999.6378;;;;
2019/09/27 10:00:28;;;;;;;15.6;4;;;;;;;17.21;92.00586;999.6905;;;;
2019/09/27 10:02:53;;;;;;;14.9;3.9;;;;;;;17.21;92.4502;999.7327;;;;
2019/09/27 10:05:18;;;;;;;10.2;4.1;;;;;;;17.2;93.08691;999.7781;;;;
2019/09/27 10:07:43;;;;;;;14.7;4.6;;;;;;;16.97;94.00195;999.8496;;;;
2019/09/27 10:10:08;;;;;;;14.1;4.3;;;;;;;17.11;93.18457;999.7329;;;;
2019/09/27 10:12:34;;;;;;;10.5;4.1;;;;;;;16.95;93.73047;999.7971;;;;
2019/09/27 10:14:59;;;;;;;11.9;3.9;;;;;;;16.87;94.67773;999.8326;;;;
2019/09/27 10:17:24;;;;;;;11.4;4.3;;;;;;;17;94.11426;999.8279;;;;
2019/09/27 10:19:49;;;;;;;10.6;3.5;;;;;;;16.76;94.875;999.8599;;;;
2019/09/27 10:22:14;;;;;;;7.3;3.3;;;;;;;16.72;94.99512;999.7076;;;;
2019/09/27 10:24:39;;;;;;;6.5;2.9;;;;;;;16.69;95.75488;999.6711;;;;
2019/09/27 10:27:04;;;;;;;8.5;2.8;;;;;;;16.77;94.81836;999.6167;;;;
2019/09/27 10:29:30;;;;;;;8.5;2.8;;;;;;;16.74;95.18262;999.6117;;;;
2019/09/27 10:31:55;;;;;;;4.6;2.6;;;;;;;16.73;95.30859;999.6212;;;;
2019/09/27 10:34:20;;;;;;;9.1;2.8;;;;;;;16.9;94.7998;999.6348;;;;
2019/09/27 10:36:45;;;;;;;6.7;2.7;;;;;;;16.79;95.13672;999.7372;;;;
2019/09/27 10:39:10;;;;;;;7.8;3.2;;;;;;;16.79;95.15918;999.7509;;;;
2019/09/27 10:41:35;;;;;;;9.2;3.7;;;;;;;16.75;94.72363;999.7732;;;;
2019/09/27 10:44:00;;;;;;;8.4;2.8;;;;;;;16.76;94.70117;999.837;;;;
2019/09/27 10:46:26;;;;;;;11;4.3;;;;;;;16.67;95.28516;999.8309;;;;
2019/09/27 10:48:51;;;;;;;7.7;3.5;;;;;;;16.57;96.34277;999.8744;;;;
2019/09/27 10:51:16;;;;;;;7.7;3.4;;;;;;;16.64;96.25391;999.8948;;;;
2019/09/27 10:53:41;;;;;;;8.9;4.2;;;;;;;16.7;95.98926;999.8463;;;;
2019/09/27 10:56:06;;;;;;;11.2;4.9;;;;;;;16.73;95.84473;999.7961;;;;
2019/09/27 10:58:32;;;;;;;13.2;6;;;;;;;16.66;95.67773;999.7151;;;;
2019/09/27 11:00:57;;;;;;;11.5;5;;;;;;;16.56;96.12988;999.6965;;;;
2019/09/27 11:03:38;;;;;;;9.1;4;;;;;;;16.58;96.3916;999.7092;;;;
2019/09/27 11:06:03;;;;;;;8.3;4;;;;;;;16.49;96.78906;999.6859;;;;
2019/09/27 11:08:28;;;;;;;11.8;3.7;;;;;;;16.54;96.66016;999.7114;;;;
2019/09/27 11:10:53;;;;;;;8.3;3.1;;;;;;;16.43;97.36914;999.6526;;;;
2019/09/27 11:13:18;;;;;;;6.9;3;;;;;;;16.57;96.96973;999.5942;;;;
2019/09/27 11:15:44;;;;;;;7.6;3.3;;;;;;;16.48;97.34473;999.4802;;;;
2019/09/27 11:18:08;;;;;;;9.8;3.5;;;;;;;16.74;96.25098;999.4398;;;;
2019/09/27 11:20:34;;;;;;;9.5;3.9;;;;;;;16.79;96.47168;999.3323;;;;
2019/09/27 11:22:59;;;;;;;10.5;4.3;;;;;;;16.98;95.28418;999.3314;;;;
2019/09/27 11:25:24;;;;;;;7.6;3.6;;;;;;;16.89;96.29785;999.2667;;;;
2019/09/27 11:27:49;;;;;;;8.2;3.7;;;;;;;17.29;94.67578;999.2888;;;;
2019/09/27 11:30:14;;;;;;;8.5;3.7;;;;;;;17.14;95.2959;999.3375;;;;
2019/09/27 11:32:40;;;;;;;9;3.5;;;;;;;17.21;95.35547;999.3047;;;;
2019/09/27 11:35:05;;;;;;;8;3.4;;;;;;;17.24;94.8623;999.3286;;;;
2019/09/27 11:37:30;;;;;;;7.1;3.2;;;;;;;17.18;95.41797;999.3805;;;;
2019/09/27 11:39:55;;;;;;;9.5;3.5;;;;;;;17.22;95.53223;999.3339;;;;
2019/09/27 11:42:21;;;;;;;9;3.2;;;;;;;17.27;94.99707;999.3512;;;;
2019/09/27 11:44:45;;;;;;;8.1;3.2;;;;;;;17.44;93.83496;999.303;;;;
2019/09/27 11:47:11;;;;;;;7.9;3.4;;;;;;;17.27;94.68359;999.3734;;;;
2019/09/27 11:49:36;;;;;;;6.8;3.3;;;;;;;17.39;94.18555;999.2766;;;;
2019/09/27 11:52:01;;;;;;;8.3;3;;;;;;;17.54;93.84375;999.2297;;;;
2019/09/27 11:54:26;;;;;;;6.9;2.8;;;;;;;18.3;90.76758;999.2195;;;;
2019/09/27 11:56:51;;;;;;;6.9;2.9;;;;;;;18.2;90.375;999.2029;;;;
2019/09/27 11:59:16;;;;;;;7.6;2.9;;;;;;;18.17;90.60254;999.186;;;;
2019/09/27 12:01:43;;;;;;;6.1;2.5;;;;;;;18.28;89.87695;999.1758;;;;
2019/09/27 12:04:07;;;;;;;6.4;3;;;;;;;17.62;91.95313;999.242;;;;
2019/09/27 12:06:32;;;;;;;7.3;3;;;;;;;17.75;92.20313;999.2402;;;;
2019/09/27 12:08:57;;;;;;;4.8;2.2;;;;;;;17.87;91.19141;999.1906;;;;
2019/09/27 12:11:22;;;;;;;6.9;2.7;;;;;;;17.86;91.38672;999.1468;;;;
2019/09/27 12:13:47;;;;;;;4.9;2.6;;;;;;;17.7;92.34473;999.1083;;;;
2019/09/27 12:16:12;;;;;;;5.8;2.4;;;;;;;17.98;91.29688;999.1852;;;;
2019/09/27 12:18:37;;;;;;;6.3;2.4;;;;;;;17.8;92.46973;999.1625;;;;
2019/09/27 12:21:02;;;;;;;5.9;2.7;;;;;;;17.72;91.97559;999.027;;;;
2019/09/27 12:23:27;;;;;;;7.8;2.7;;;;;;;17.55;93.71973;998.9351;;;;
2019/09/27 12:25:52;;;;;;;6.4;2.9;;;;;;;17.54;93.74121;998.9658;;;;
2019/09/27 12:28:17;;;;;;;5;2.4;;;;;;;17.87;91.64551;999.0274;;;;
2019/09/27 12:30:43;;;;;;;5.4;2.5;;;;;;;18;91.5918;999.0987;;;;
2019/09/27 12:33:08;;;;;;;7;2.5;;;;;;;18.11;90.56445;999.0051;;;;
2019/09/27 12:35:33;;;;;;;7.4;2.9;;;;;;;18.08;90.83789;998.9289;;;;
2019/09/27 12:37:58;;;;;;;5;2.5;;;;;;;18.09;90.49219;998.8908;;;;
2019/09/27 12:40:23;;;;;;;5.8;2.5;;;;;;;17.8;91.1543;998.9486;;;;
2019/09/27 12:42:48;;;;;;;5.7;2.6;;;;;;;17.59;92.99512;998.9661;;;;
2019/09/27 12:45:13;;;;;;;6.8;2.8;;;;;;;17.39;93.58105;999.007;;;;
2019/09/27 12:47:38;;;;;;;4.7;2.1;;;;;;;17.15;92.32031;998.9974;;;;
2019/09/27 12:50:03;;;;;;;4.5;1.9;;;;;;;17.23;91.92871;999.0184;;;;
2019/09/27 12:52:29;;;;;;;4;1.9;;;;;;;17.16;92.04492;999.0496;;;;
2019/09/27 12:54:54;;;;;;;3;1.7;;;;;;;17.41;90.18848;999.079;;;;
2019/09/27 12:57:19;;;;;;;2.1;1.4;;;;;;;17.31;90.65723;999.1386;;;;
2019/09/27 12:59:44;;;;;;;2.2;1.5;;;;;;;17.04;91.64648;999.1968;;;;
2019/09/27 13:02:09;;;;;;;2.3;1.4;;;;;;;16.96;91.43262;999.3256;;;;
2019/09/27 13:04:34;;;;;;;1.9;1;;;;;;;16.75;90.55273;999.4548;;;;
2019/09/27 13:06:59;;;;;;;3.6;1.4;;;;;;;16.52;92.04883;999.3041;;;;
2019/09/27 13:09:24;;;;;;;2.9;1.3;;;;;;;16.61;92.6709;999.4001;;;;
2019/09/27 13:11:50;;;;;;;2.6;1.3;;;;;;;16.42;93.19922;999.3142;;;;
2019/09/27 13:14:15;;;;;;;3.3;1.4;;;;;;;16.37;93.88574;999.2563;;;;
2019/09/27 13:16:40;;;;;;;2.5;1.6;;;;;;;16.49;93.49121;999.2618;;;;
2019/09/27 13:19:05;;;;;;;2.1;1.3;;;;;;;16.49;93.26172;999.247;;;;
2019/09/27 13:21:30;;;;;;;3.7;1.4;;;;;;;16.73;92.48828;999.1691;;;;
2019/09/27 13:23:55;;;;;;;2.4;1.1;;;;;;;16.61;91.8584;999.2048;;;;
2019/09/27 13:26:20;;;;;;;3.5;1.3;;;;;;;16.7;92.29688;999.2124;;;;
2019/09/27 13:28:45;;;;;;;2.6;1.3;;;;;;;16.82;91.53027;999.1733;;;;
2019/09/27 13:31:10;;;;;;;2.9;1.7;;;;;;;16.89;91.71973;999.1295;;;;
2019/09/27 13:33:35;;;;;;;3.5;1.5;;;;;;;16.64;93.41992;999.1191;;;;
2019/09/27 13:36:01;;;;;;;2.8;1.5;;;;;;;16.8;92.45703;999.115;;;;
2019/09/27 13:38:26;;;;;;;2.9;1.6;;;;;;;16.62;93.53418;999.0784;;;;
2019/09/27 13:40:51;;;;;;;4.2;1.7;;;;;;;16.96;91.50391;999.0989;;;;
2019/09/27 13:43:16;;;;;;;3.7;1.9;;;;;;;16.95;91.26758;999.13;;;;
2019/09/27 13:45:41;;;;;;;2.5;1.5;;;;;;;16.95;91.31445;999.1379;;;;
2019/09/27 13:48:06;;;;;;;2.5;1.1;;;;;;;16.77;92.10156;999.0574;;;;
2019/09/27 13:50:31;;;;;;;2.3;1.5;;;;;;;16.79;93.23145;999.0378;;;;
2019/09/27 13:52:57;;;;;;;5;2.1;;;;;;;16.79;93.34766;999.0578;;;;
2019/09/27 13:55:22;;;;;;;1.9;1.3;;;;;;;16.96;92.15234;999.0994;;;;
2019/09/27 13:57:47;;;;;;;3.2;1.6;;;;;;;17.07;92.10547;999.1548;;;;
2019/09/27 14:00:12;;;;;;;4.1;1.6;;;;;;;16.88;93.40332;999.1167;;;;
2019/09/27 14:02:37;;;;;;;2.8;1.7;;;;;;;17.21;91.98438;999.1747;;;;
2019/09/27 14:05:03;;;;;;;2.8;1.7;;;;;;;16.94;93.33398;999.2033;;;;
2019/09/27 14:07:28;;;;;;;4.1;1.9;;;;;;;16.88;92.92578;999.2033;;;;
2019/09/27 14:09:53;;;;;;;2;1.3;;;;;;;16.72;93.14648;999.3044;;;;
2019/09/27 14:12:18;;;;;;;3.3;1.4;;;;;;;16.69;93.24512;999.3881;;;;
2019/09/27 14:14:43;;;;;;;4.7;1.6;;;;;;;16.45;94.77344;999.3627;;;;
2019/09/27 14:17:09;;;;;;;7.9;4.9;;;;;;;16.67;93.60156;999.4995;;;;
2019/09/27 14:19:33;;;;;;;2.6;1.3;;;;;;;16.77;92.83301;999.6553;;;;
2019/09/27 14:21:58;;;;;;;6.5;1.8;;;;;;;16.67;93.06738;999.6875;;;;
2019/09/27 14:24:24;;;;;;;2.5;1.4;;;;;;;16.32;94.83789;999.7113;;;;
2019/09/27 14:26:49;;;;;;;3.3;1.4;;;;;;;16.46;94.08887;999.8148;;;;
2019/09/27 14:29:14;;;;;;;3.1;1;;;;;;;16.2;94.80078;999.9656;;;;
2019/09/27 14:31:39;;;;;;;1.6;1;;;;;;;16.2;93.58301;1000.12;;;;
2019/09/27 14:34:04;;;;;;;3;1;;;;;;;16.09;92.77148;1000.161;;;;
2019/09/27 14:36:29;;;;;;;1.7;0.9;;;;;;;15.89;93.64258;1000.124;;;;
2019/09/27 14:38:54;;;;;;;2.3;0.9;;;;;;;15.92;93.40723;999.973;;;;
2019/09/27 14:41:20;;;;;;;3.2;1.2;;;;;;;15.86;93.74121;1000.003;;;;
2019/09/27 14:43:45;;;;;;;2.8;1.2;;;;;;;15.72;93.61816;1000.021;;;;
2019/09/27 14:46:10;;;;;;;3.4;1.2;;;;;;;15.59;93.68164;999.9973;;;;
2019/09/27 14:48:35;;;;;;;2.2;1;;;;;;;15.68;92.95215;999.999;;;;
2019/09/27 14:51:00;;;;;;;2.4;1.1;;;;;;;15.61;92.8418;999.9684;;;;
2019/09/27 14:53:25;;;;;;;3.7;1.1;;;;;;;15.74;93.28613;999.9719;;;;
2019/09/27 14:55:50;;;;;;;2.9;1;;;;;;;15.71;93.15234;999.9377;;;;
2019/09/27 14:58:15;;;;;;;3.1;1;;;;;;;15.75;93.7998;999.9519;;;;
2019/09/27 15:00:41;;;;;;;1.7;1;;;;;;;15.93;92.05273;999.934;;;;
2019/09/27 15:03:06;;;;;;;3.1;0.9;;;;;;;15.8;92.52441;999.8618;;;;
2019/09/27 15:05:31;;;;;;;2.7;1.1;;;;;;;15.96;91.9541;999.8778;;;;
2019/09/27 15:07:56;;;;;;;3.9;1.4;;;;;;;15.72;92.87598;999.9634;;;;
2019/09/27 15:10:21;;;;;;;3.2;1.4;;;;;;;15.63;93.43652;999.8762;;;;
2019/09/27 15:12:46;;;;;;;6.2;2.4;;;;;;;15.64;93.70508;999.8708;;;;
2019/09/27 15:15:11;;;;;;;2.8;1.4;;;;;;;15.81;93.2334;999.8865;;;;
2019/09/27 15:17:36;;;;;;;3.2;1.2;;;;;;;15.73;93.13281;999.9398;;;;
2019/09/27 15:20:02;;;;;;;1.4;1;;;;;;;15.66;94.90332;999.9113;;;;
2019/09/27 15:22:27;;;;;;;1.7;0.9;;;;;;;15.72;95.06836;999.9153;;;;
2019/09/27 15:24:52;;;;;;;2;1.2;;;;;;;15.94;94.00195;999.9388;;;;
2019/09/27 15:27:17;;;;;;;1.2;1.1;;;;;;;15.83;94.4082;999.8909;;;;